createdAt,value
2019-04-27T00:01:45.371Z,6.47
2019-04-27T00:04:34.076Z,8.60
2019-04-27T00:07:26.496Z,8.50
2019-04-27T00:09:59.435Z,10.30
2019-04-27T00:12:28.820Z,7.50
2019-04-27T00:14:58.230Z,9.03
2019-04-27T00:17:48.543Z,7.90
2019-04-27T00:20:33.566Z,8.77
2019-04-27T00:23:06.338Z,8.93
2019-04-27T00:25:35.608Z,7.90
2019-04-27T00:28:05.468Z,6.97
2019-04-27T00:30:35.765Z,8.97
2019-04-27T00:33:05.489Z,7.43
2019-04-27T00:35:44.270Z,8.10
2019-04-27T00:38:30.984Z,8.73
2019-04-27T00:41:09.114Z,9.20
2019-04-27T00:43:38.338Z,8.70
2019-04-27T00:46:07.595Z,8.07
2019-04-27T00:48:36.932Z,6.97
2019-04-27T00:51:06.007Z,8.60
2019-04-27T00:53:35.076Z,8.50
2019-04-27T00:56:20.783Z,7.43
2019-04-27T00:59:20.726Z,7.13
2019-04-27T01:02:05.544Z,7.50
2019-04-27T01:04:34.731Z,7.93
2019-04-27T01:07:04.358Z,9.13
2019-04-27T01:09:34.011Z,7.30
2019-04-27T01:12:03.702Z,8.70
2019-04-27T01:14:34.239Z,8.60
2019-04-27T01:17:03.640Z,7.77
2019-04-27T01:19:32.796Z,7.43
2019-04-27T01:22:02.196Z,7.57
2019-04-27T01:24:31.207Z,7.50
2019-04-27T01:27:16.488Z,7.60
2019-04-27T01:29:45.704Z,8.80
2019-04-27T01:32:16.062Z,8.80
2019-04-27T01:34:45.106Z,9.13
2019-04-27T01:37:14.303Z,10.23
2019-04-27T01:39:43.347Z,9.03
2019-04-27T01:42:12.610Z,7.53
2019-04-27T01:44:41.705Z,7.57
2019-04-27T01:47:11.215Z,8.73
2019-04-27T01:49:40.405Z,9.13
2019-04-27T01:52:09.719Z,9.47
2019-04-27T01:54:40.969Z,9.23
2019-04-27T01:57:10.341Z,9.20
2019-04-27T01:59:39.784Z,8.60
2019-04-27T02:02:29.289Z,9.37
2019-04-27T02:05:23.674Z,7.83
2019-04-27T02:07:52.832Z,9.37
2019-04-27T02:10:22.057Z,9.37
2019-04-27T02:12:51.190Z,7.43
2019-04-27T02:15:20.302Z,8.53
2019-04-27T02:17:51.020Z,8.40
2019-04-27T02:20:20.257Z,7.40
2019-04-27T02:22:50.790Z,8.00
2019-04-27T02:25:21.155Z,9.13
2019-04-27T02:27:54.948Z,8.00
2019-04-27T02:30:46.188Z,7.43
2019-04-27T02:33:40.340Z,8.73
2019-04-27T02:36:14.754Z,7.53
2019-04-27T02:38:40.781Z,8.80
2019-04-27T02:41:10.369Z,10.50
2019-04-27T02:43:53.728Z,10.70
2019-04-27T02:46:23.041Z,9.83
2019-04-27T02:48:59.599Z,8.77
2019-04-27T02:51:32.722Z,9.07
2019-04-27T02:54:01.850Z,8.33
2019-04-27T02:56:31.257Z,7.17
2019-04-27T02:59:00.754Z,9.53
2019-04-27T03:01:32.711Z,7.63
2019-04-27T03:04:01.868Z,8.80
2019-04-27T03:06:31.265Z,8.47
2019-04-27T03:09:00.967Z,7.57
2019-04-27T03:11:31.773Z,7.90
2019-04-27T03:14:29.344Z,9.77
2019-04-27T03:16:59.987Z,8.47
2019-04-27T03:19:34.273Z,8.53
2019-04-27T03:22:39.696Z,9.83
2019-04-27T03:25:32.077Z,9.90
2019-04-27T03:28:10.739Z,9.87
2019-04-27T03:30:42.625Z,9.73
2019-04-27T03:33:12.404Z,9.00
2019-04-27T03:35:43.397Z,9.53
2019-04-27T03:38:13.184Z,9.53
2019-04-27T03:40:43.085Z,8.93
2019-04-27T03:43:19.761Z,8.83
2019-04-27T03:45:51.777Z,9.27
2019-04-27T03:48:20.372Z,8.40
2019-04-27T03:51:11.807Z,9.23
2019-04-27T03:53:49.716Z,7.57
2019-04-27T03:56:30.632Z,9.17
2019-04-27T03:59:10.149Z,8.53
2019-04-27T04:01:39.865Z,9.40
2019-04-27T04:04:10.415Z,9.37
2019-04-27T04:06:40.236Z,8.03
2019-04-27T04:09:10.450Z,9.50
2019-04-27T04:12:03.587Z,8.13
2019-04-27T04:14:36.509Z,9.70
2019-04-27T04:17:05.594Z,8.87
2019-04-27T04:19:47.845Z,9.17
2019-04-27T04:22:05.718Z,8.10
2019-04-27T04:24:35.042Z,7.00
2019-04-27T04:27:04.299Z,8.93
2019-04-27T04:29:33.782Z,7.23
2019-04-27T04:32:02.948Z,8.43
2019-04-27T04:34:32.228Z,7.67
2019-04-27T04:37:01.356Z,6.80
2019-04-27T04:39:30.547Z,7.60
2019-04-27T04:42:21.546Z,8.83
2019-04-27T04:44:56.786Z,9.73
2019-04-27T04:47:49.694Z,7.60
2019-04-27T04:50:20.277Z,7.87
2019-04-27T04:52:50.254Z,7.17
2019-04-27T04:55:20.310Z,6.70
2019-04-27T04:57:49.984Z,7.77
2019-04-27T05:00:19.888Z,7.63
2019-04-27T05:02:49.444Z,8.77
2019-04-27T05:05:19.317Z,6.90
2019-04-27T05:07:48.800Z,6.70
2019-04-27T05:10:18.868Z,8.00
2019-04-27T05:12:48.602Z,7.67
2019-04-27T05:15:20.759Z,7.67
2019-04-27T05:17:55.539Z,6.77
2019-04-27T05:20:39.810Z,7.43
2019-04-27T05:23:09.745Z,7.43
2019-04-27T05:25:39.282Z,6.47
2019-04-27T05:28:09.748Z,6.40
2019-04-27T05:30:39.328Z,6.93
2019-04-27T05:33:09.021Z,8.60
2019-04-27T05:35:40.835Z,7.10
2019-04-27T05:38:13.030Z,7.00
2019-04-27T05:40:40.586Z,8.47
2019-04-27T05:43:11.043Z,7.87
2019-04-27T05:46:39.848Z,7.03
2019-04-27T05:49:13.919Z,6.30
2019-04-27T05:51:43.270Z,6.60
2019-04-27T05:54:12.644Z,6.97
2019-04-27T05:56:42.318Z,5.90
2019-04-27T05:59:14.596Z,7.07
2019-04-27T06:01:42.498Z,7.50
2019-04-27T06:04:12.048Z,7.23
2019-04-27T06:06:41.428Z,7.90
2019-04-27T06:09:10.718Z,6.97
2019-04-27T06:11:40.587Z,7.63
2019-04-27T06:14:09.913Z,7.10
2019-04-27T06:16:39.456Z,6.70
2019-04-27T06:19:09.601Z,5.97
2019-04-27T06:21:40.067Z,7.53
2019-04-27T06:24:09.871Z,6.97
2019-04-27T06:26:39.944Z,5.83
2019-04-27T06:29:20.888Z,7.30
2019-04-27T06:31:50.369Z,5.73
2019-04-27T06:34:19.654Z,6.13
2019-04-27T06:36:49.951Z,7.30
2019-04-27T06:39:20.573Z,7.07
2019-04-27T06:41:49.943Z,6.57
2019-04-27T06:44:19.633Z,6.50
2019-04-27T06:46:52.579Z,6.57
2019-04-27T06:49:21.802Z,5.93
2019-04-27T06:51:51.057Z,6.50
2019-04-27T06:54:21.486Z,6.00
2019-04-27T06:56:51.187Z,5.93
2019-04-27T06:59:20.316Z,5.07
2019-04-27T07:01:49.418Z,4.63
2019-04-27T07:04:27.069Z,6.20
2019-04-27T07:06:56.356Z,6.10
2019-04-27T07:09:25.667Z,6.23
2019-04-27T07:11:54.654Z,6.07
2019-04-27T07:14:23.859Z,5.80
2019-04-27T07:16:53.268Z,7.00
2019-04-27T07:19:22.409Z,5.47
2019-04-27T07:21:51.459Z,6.23
2019-04-27T07:24:23.792Z,4.90
2019-04-27T07:26:52.867Z,5.50
2019-04-27T07:29:23.264Z,6.23
2019-04-27T07:31:52.529Z,5.53
2019-04-27T07:34:21.723Z,6.07
2019-04-27T07:36:50.898Z,5.53
2019-04-27T07:39:20.075Z,5.47
2019-04-27T07:41:49.835Z,6.13
2019-04-27T07:44:44.211Z,5.70
2019-04-27T07:47:21.702Z,6.00
2019-04-27T07:49:51.003Z,5.33
2019-04-27T07:52:20.649Z,4.73
2019-04-27T07:54:50.169Z,5.77
2019-04-27T07:57:19.907Z,5.03
2019-04-27T07:59:50.133Z,5.50
2019-04-27T08:02:19.895Z,4.70
2019-04-27T08:04:54.999Z,4.77
2019-04-27T08:07:24.597Z,4.60
2019-04-27T08:09:53.730Z,5.40
2019-04-27T08:12:22.972Z,5.07
2019-04-27T08:14:52.296Z,4.70
2019-04-27T08:17:21.574Z,4.73
2019-04-27T08:19:50.753Z,4.40
2019-04-27T08:22:19.894Z,5.37
2019-04-27T08:24:49.911Z,4.67
2019-04-27T08:27:44.165Z,4.63
2019-04-27T08:30:21.675Z,4.47
2019-04-27T08:32:51.571Z,4.27
2019-04-27T08:35:20.614Z,4.40
2019-04-27T08:37:49.783Z,4.80
2019-04-27T08:40:19.408Z,4.67
2019-04-27T08:43:01.635Z,4.27
2019-04-27T08:45:30.829Z,4.17
2019-04-27T08:47:59.806Z,3.80
2019-04-27T08:50:29.112Z,3.23
2019-04-27T08:52:58.386Z,3.30
2019-04-27T08:55:29.359Z,3.20
2019-04-27T08:57:58.776Z,3.07
2019-04-27T09:00:29.118Z,3.00
2019-04-27T09:03:09.329Z,3.10
2019-04-27T09:05:38.985Z,2.90
2019-04-27T09:08:30.237Z,3.27
2019-04-27T09:11:11.448Z,3.57
2019-04-27T09:13:55.234Z,3.00
2019-04-27T09:16:39.039Z,3.33
2019-04-27T09:19:23.933Z,3.03
2019-04-27T09:22:12.296Z,4.20
2019-04-27T09:24:33.291Z,3.83
2019-04-27T09:27:02.438Z,3.40
2019-04-27T09:29:34.479Z,3.10
2019-04-27T09:32:06.366Z,2.73
2019-04-27T09:34:36.640Z,3.47
2019-04-27T09:37:06.208Z,3.43
2019-04-27T09:39:38.979Z,3.33
2019-04-27T09:42:08.200Z,3.70
2019-04-27T09:44:37.429Z,3.93
2019-04-27T09:47:06.653Z,3.43
2019-04-27T09:49:38.445Z,3.47
2019-04-27T09:52:07.801Z,3.73
2019-04-27T09:54:36.915Z,4.20
2019-04-27T09:57:06.931Z,3.07
2019-04-27T10:02:08.629Z,2.67
2019-04-27T10:04:37.855Z,2.47
2019-04-27T10:07:07.068Z,2.97
2019-04-27T10:09:36.843Z,2.80
2019-04-27T10:12:07.388Z,2.50
2019-04-27T10:14:36.964Z,2.10
2019-04-27T10:17:06.224Z,2.57
2019-04-27T10:19:36.542Z,2.10
2019-04-27T10:22:06.398Z,2.77
2019-04-27T10:24:35.929Z,3.00
2019-04-27T10:27:07.904Z,3.03
2019-04-27T10:29:38.226Z,2.50
2019-04-27T10:32:22.628Z,2.77
2019-04-27T10:34:51.883Z,2.27
2019-04-27T10:37:21.152Z,2.30
2019-04-27T10:39:50.359Z,2.27
2019-04-27T10:42:19.599Z,2.47
2019-04-27T10:44:48.874Z,1.73
2019-04-27T10:47:18.619Z,2.27
2019-04-27T10:49:48.441Z,2.60
2019-04-27T10:52:17.706Z,1.87
2019-04-27T10:54:46.998Z,2.87
2019-04-27T10:57:18.230Z,2.07
2019-04-27T10:59:47.479Z,3.23
2019-04-27T11:02:16.707Z,2.70
2019-04-27T11:05:08.776Z,2.60
2019-04-27T11:07:39.503Z,2.23
2019-04-27T11:10:09.720Z,2.43
2019-04-27T11:12:38.880Z,2.20
2019-04-27T11:15:08.696Z,2.40
2019-04-27T11:17:37.866Z,2.07
2019-04-27T11:20:07.279Z,1.80
2019-04-27T11:22:36.473Z,2.00
2019-04-27T11:25:06.352Z,2.00
2019-04-27T11:27:35.600Z,2.50
2019-04-27T11:30:06.695Z,8.40
2019-04-27T11:32:36.008Z,5.90
2019-04-27T11:35:36.712Z,3.63
2019-04-27T11:38:06.297Z,3.27
2019-04-27T11:40:36.688Z,3.17
2019-04-27T11:43:06.443Z,3.87
2019-04-27T11:45:36.765Z,3.30
2019-04-27T11:48:06.253Z,3.47
2019-04-27T11:50:35.810Z,3.30
2019-04-27T11:53:06.179Z,3.63
2019-04-27T11:55:35.600Z,3.30
2019-04-27T11:58:06.428Z,3.20
2019-04-27T12:00:36.482Z,3.10
2019-04-27T12:03:06.755Z,3.00
2019-04-27T12:05:59.706Z,4.17
2019-04-27T12:08:26.485Z,2.77
2019-04-27T12:10:55.826Z,2.87
2019-04-27T12:13:25.940Z,3.10
2019-04-27T12:15:55.304Z,5.00
2019-04-27T12:18:24.644Z,2.57
2019-04-27T12:20:55.689Z,4.73
2019-04-27T12:23:33.736Z,3.67
2019-04-27T12:25:57.975Z,4.00
2019-04-27T12:28:53.573Z,3.97
2019-04-27T12:31:49.200Z,3.50
2019-04-27T12:34:19.196Z,3.70
2019-04-27T12:36:48.483Z,3.27
2019-04-27T12:39:17.646Z,3.23
2019-04-27T12:41:46.718Z,3.20
2019-04-27T12:44:16.121Z,3.10
2019-04-27T12:46:45.294Z,3.23
2019-04-27T12:49:16.040Z,2.90
2019-04-27T12:51:45.688Z,3.03
2019-04-27T12:54:24.029Z,3.20
2019-04-27T12:57:11.299Z,2.87
2019-04-27T13:00:06.521Z,3.30
2019-04-27T13:02:36.250Z,3.10
2019-04-27T13:05:05.855Z,3.40
2019-04-27T13:07:35.145Z,3.90
2019-04-27T13:10:05.664Z,3.30
2019-04-27T13:12:35.793Z,3.50
2019-04-27T13:15:06.243Z,3.70
2019-04-27T13:17:36.621Z,3.33
2019-04-27T13:20:06.568Z,2.83
2019-04-27T13:22:37.170Z,2.53
2019-04-27T13:25:08.987Z,2.20
2019-04-27T13:27:38.233Z,2.00
2019-04-27T13:30:09.931Z,1.70
2019-04-27T13:32:38.938Z,1.50
2019-04-27T13:35:08.542Z,1.97
2019-04-27T13:37:40.291Z,3.17
2019-04-27T13:40:12.275Z,2.50
2019-04-27T13:43:18.431Z,3.33
2019-04-27T13:46:08.147Z,2.63
2019-04-27T13:48:55.860Z,2.73
2019-04-27T13:51:50.134Z,2.10
2019-04-27T13:54:26.041Z,1.30
2019-04-27T13:56:53.571Z,1.67
2019-04-27T13:59:22.780Z,1.87
2019-04-27T14:01:51.969Z,1.10
2019-04-27T14:04:21.226Z,1.07
2019-04-27T14:06:50.388Z,1.20
2019-04-27T14:09:19.545Z,1.13
2019-04-27T14:11:49.102Z,1.13
2019-04-27T14:14:24.382Z,1.10
2019-04-27T14:16:53.618Z,1.30
2019-04-27T14:19:22.887Z,1.00
2019-04-27T14:21:52.177Z,1.10
2019-04-27T14:24:29.887Z,1.10
2019-04-27T14:26:54.409Z,1.07
2019-04-27T14:29:24.302Z,0.73
2019-04-27T14:31:53.473Z,0.70
2019-04-27T14:34:22.532Z,1.23
2019-04-27T14:36:51.925Z,1.40
2019-04-27T14:39:21.438Z,0.97
2019-04-27T14:41:53.037Z,1.20
2019-04-27T14:44:22.306Z,1.37
2019-04-27T14:46:52.723Z,1.00
2019-04-27T14:49:22.147Z,1.30
2019-04-27T14:51:51.308Z,1.00
2019-04-27T14:54:20.403Z,1.27
2019-04-27T14:56:49.743Z,0.93
2019-04-27T14:59:19.162Z,0.90
2019-04-27T15:01:48.808Z,1.20
2019-04-27T15:04:22.968Z,1.00
2019-04-27T15:06:52.204Z,1.27
2019-04-27T15:09:26.129Z,1.13
2019-04-27T15:11:56.531Z,0.97
2019-04-27T15:14:25.885Z,1.10
2019-04-27T15:16:56.496Z,1.10
2019-04-27T15:20:02.308Z,1.10
2019-04-27T15:22:35.266Z,1.10
2019-04-27T15:25:12.344Z,1.13
2019-04-27T15:27:44.518Z,1.17
2019-04-27T15:30:22.157Z,1.10
2019-04-27T15:33:16.045Z,1.60
2019-04-27T15:35:48.864Z,1.50
2019-04-27T15:38:21.677Z,1.40
2019-04-27T15:41:13.696Z,1.93
2019-04-27T15:43:43.803Z,1.47
2019-04-27T15:46:19.271Z,1.37
2019-04-27T15:48:48.747Z,1.90
2019-04-27T15:51:21.058Z,1.47
2019-04-27T15:53:50.694Z,1.50
2019-04-27T15:56:21.718Z,1.30
2019-04-27T15:58:55.694Z,1.20
2019-04-27T16:01:42.908Z,1.40
2019-04-27T16:04:13.307Z,1.53
2019-04-27T16:06:47.237Z,1.13
2019-04-27T16:09:21.724Z,1.10
2019-04-27T16:11:57.648Z,1.27
2019-04-27T16:14:28.803Z,1.07
2019-04-27T16:16:58.890Z,1.20
2019-04-27T16:19:28.765Z,1.47
2019-04-27T16:21:59.159Z,0.90
2019-04-27T16:24:29.056Z,1.10
2019-04-27T16:27:00.107Z,1.20
2019-04-27T16:29:31.517Z,1.27
2019-04-27T16:32:02.925Z,0.90
2019-04-27T16:34:36.980Z,1.10
2019-04-27T16:37:03.990Z,1.20
2019-04-27T16:39:34.376Z,1.33
2019-04-27T16:42:07.604Z,1.30
2019-04-27T16:44:34.797Z,1.20
2019-04-27T16:47:05.391Z,1.80
2019-04-27T16:49:34.555Z,1.83
2019-04-27T16:52:03.779Z,1.50
2019-04-27T16:54:32.897Z,1.87
2019-04-27T16:57:05.033Z,1.40
2019-04-27T16:59:43.368Z,1.93
2019-04-27T17:02:04.497Z,1.70
2019-04-27T17:04:55.659Z,1.87
2019-04-27T17:07:23.826Z,1.50
2019-04-27T17:09:52.907Z,1.27
2019-04-27T17:12:23.855Z,1.50
2019-04-27T17:15:13.627Z,1.53
2019-04-27T17:17:59.824Z,1.40
2019-04-27T17:20:29.912Z,1.37
2019-04-27T17:22:59.193Z,1.23
2019-04-27T17:25:33.063Z,1.83
2019-04-27T17:28:07.302Z,1.40
2019-04-27T17:30:39.744Z,1.30
2019-04-27T17:33:30.016Z,1.53
2019-04-27T17:35:59.601Z,1.50
2019-04-27T17:38:33.789Z,1.43
2019-04-27T17:41:09.439Z,1.43
2019-04-27T17:43:37.404Z,1.63
2019-04-27T17:46:07.440Z,1.20
2019-04-27T17:48:38.363Z,1.33
2019-04-27T17:51:08.945Z,2.87
2019-04-27T17:53:38.487Z,1.73
2019-04-27T17:56:09.857Z,1.57
2019-04-27T17:58:48.611Z,1.33
2019-04-27T18:01:23.418Z,1.20
2019-04-27T18:04:08.875Z,1.17
2019-04-27T18:06:55.500Z,1.57
2019-04-27T18:09:23.688Z,1.20
2019-04-27T18:12:01.668Z,1.03
2019-04-27T18:14:41.000Z,1.13
2019-04-27T18:17:11.944Z,1.07
2019-04-27T18:19:59.630Z,1.03
2019-04-27T18:22:36.531Z,1.40
2019-04-27T18:25:06.692Z,1.40
2019-04-27T18:28:01.902Z,1.43
2019-04-27T18:30:59.000Z,1.20
2019-04-27T18:33:28.431Z,1.37
2019-04-27T18:38:49.656Z,1.43
2019-04-27T18:41:19.170Z,1.20
2019-04-27T18:43:53.431Z,1.10
2019-04-27T18:46:31.642Z,1.27
2019-04-27T18:49:22.663Z,1.20
2019-04-27T18:52:21.806Z,0.90
2019-04-27T18:54:54.085Z,1.40
2019-04-27T18:57:23.219Z,1.80
2019-04-27T18:59:52.275Z,1.47
2019-04-27T19:02:21.440Z,1.30
2019-04-27T19:04:51.736Z,1.30
2019-04-27T19:07:20.881Z,1.30
2019-04-27T19:09:50.131Z,1.80
2019-04-27T19:12:20.579Z,2.10
2019-04-27T19:14:49.761Z,2.17
2019-04-27T19:17:19.884Z,2.03
2019-04-27T19:19:49.509Z,2.20
2019-04-27T19:22:18.635Z,2.60
2019-04-27T19:24:50.892Z,2.40
2019-04-27T19:27:27.892Z,2.97
2019-04-27T19:30:01.536Z,2.60
2019-04-27T19:32:30.604Z,2.17
2019-04-27T19:34:59.672Z,1.70
2019-04-27T19:37:29.382Z,1.70
2019-04-27T19:39:58.539Z,1.70
2019-04-27T19:42:28.568Z,1.80
2019-04-27T19:44:57.800Z,1.10
2019-04-27T19:47:32.997Z,1.50
2019-04-27T19:50:02.500Z,1.40
2019-04-27T19:52:31.638Z,1.50
2019-04-27T19:55:00.635Z,1.30
2019-04-27T19:57:36.346Z,1.50
2019-04-27T20:00:02.222Z,1.33
2019-04-27T20:02:31.539Z,1.77
2019-04-27T20:05:03.536Z,1.60
2019-04-27T20:07:32.669Z,1.63
2019-04-27T20:10:02.735Z,1.80
2019-04-27T20:12:31.993Z,1.83
2019-04-27T20:15:02.281Z,1.90
2019-04-27T20:17:32.960Z,1.43
2019-04-27T20:20:03.022Z,1.70
2019-04-27T20:22:33.326Z,1.60
2019-04-27T20:25:02.536Z,1.70
2019-04-27T20:27:45.011Z,1.80
2019-04-27T20:30:03.097Z,2.00
2019-04-27T20:32:32.550Z,1.67
2019-04-27T20:35:01.811Z,1.70
2019-04-27T20:37:31.432Z,1.80
2019-04-27T20:40:01.613Z,1.80
2019-04-27T20:42:31.525Z,1.83
2019-04-27T20:45:01.910Z,2.30
2019-04-27T20:47:32.103Z,1.97
2019-04-27T20:50:22.676Z,1.70
2019-04-27T20:52:53.948Z,1.70
2019-04-27T20:55:23.547Z,2.40
2019-04-27T20:58:01.586Z,2.40
2019-04-27T21:00:24.151Z,2.30
2019-04-27T21:03:17.864Z,2.00
2019-04-27T21:06:06.117Z,4.35
2019-04-27T21:08:36.471Z,2.40
2019-04-27T21:11:05.866Z,3.87
2019-04-27T21:13:35.047Z,2.50
2019-04-27T21:16:04.239Z,2.80
2019-04-27T21:18:33.306Z,2.57
2019-04-27T21:21:02.355Z,2.13
2019-04-27T21:23:32.350Z,2.30
2019-04-27T21:26:02.244Z,2.43
2019-04-27T21:28:31.836Z,2.00
2019-04-27T21:31:00.971Z,1.70
2019-04-27T21:33:31.789Z,2.27
2019-04-27T21:36:01.462Z,2.20
2019-04-27T21:38:30.775Z,2.10
2019-04-27T21:41:08.875Z,2.23
2019-04-27T21:43:38.145Z,2.23
2019-04-27T21:46:07.402Z,1.80
2019-04-27T21:48:36.607Z,2.60
2019-04-27T21:51:05.779Z,2.03
2019-04-27T21:53:57.253Z,2.03
2019-04-27T21:56:26.580Z,1.80
2019-04-27T21:58:55.859Z,2.10
2019-04-27T22:01:28.815Z,2.00
2019-04-27T22:03:57.982Z,2.10
2019-04-27T22:06:27.124Z,2.43
2019-04-27T22:08:56.339Z,2.93
2019-04-27T22:11:25.452Z,2.20
2019-04-27T22:13:54.522Z,2.40
2019-04-27T22:16:23.730Z,2.60
2019-04-27T22:18:52.920Z,2.37
2019-04-27T22:21:22.047Z,2.17
2019-04-27T22:24:14.950Z,2.90
2019-04-27T22:26:44.335Z,3.10
2019-04-27T22:29:13.450Z,2.30
2019-04-27T22:31:42.459Z,2.57
2019-04-27T22:34:11.526Z,1.80
2019-04-27T22:36:40.645Z,2.43
2019-04-27T22:39:22.347Z,2.10
2019-04-27T22:42:13.197Z,2.07
2019-04-27T22:45:04.722Z,2.30
2019-04-27T22:47:33.842Z,2.87
2019-04-27T22:50:03.351Z,1.90
2019-04-27T22:52:32.375Z,2.53
2019-04-27T22:55:01.773Z,2.40
2019-04-27T22:57:41.353Z,2.00
2019-04-27T23:00:28.005Z,2.00
2019-04-27T23:03:00.599Z,2.17
2019-04-27T23:05:31.974Z,2.70
2019-04-27T23:08:01.911Z,2.17
2019-04-27T23:10:31.624Z,1.97
2019-04-27T23:13:01.156Z,2.13
2019-04-27T23:15:36.428Z,1.77
2019-04-27T23:18:05.513Z,1.70
2019-04-27T23:20:34.619Z,1.87
2019-04-27T23:23:03.655Z,1.70
2019-04-27T23:25:32.765Z,1.93
2019-04-27T23:28:01.761Z,1.57
2019-04-27T23:30:53.319Z,1.80
2019-04-27T23:33:22.339Z,1.63
2019-04-27T23:35:57.706Z,1.83
2019-04-27T23:38:26.786Z,2.20
2019-04-27T23:40:55.834Z,2.10
2019-04-27T23:43:24.900Z,2.10
2019-04-27T23:45:54.768Z,1.70
2019-04-27T23:48:25.040Z,1.90
2019-04-27T23:50:58.542Z,1.50
2019-04-27T23:53:31.661Z,1.70
2019-04-27T23:56:00.851Z,1.60
2019-04-27T23:58:29.958Z,1.60
